ADDS METAR Data INFO
IDs: Format: Raw Decoded Include TAF

Data at: 1053 UTC 19 Oct 2017

KINW 190956Z AUTO 15003KT 10SM BKN120 17/M03 A3006 RMK AO2 SLP110 T01671033
KINW 190856Z AUTO 09005KT 10SM FEW060 OVC095 18/00 A3008 RMK AO2 SLP116 T01780000 56006
KINW 190756Z AUTO 26006KT 10SM FEW090 BKN120 18/M01 A3009 RMK AO2 SLP117 T01831006
KINW 190656Z AUTO 23005KT 10SM FEW120 17/M02 A3010 RMK AO2 SLP128 T01671017 402830028
KINW 190556Z AUTO 26006KT 10SM FEW120 18/M03 A3010 RMK AO2 SLP134 T01781028 10267 20167 56000
KINW 190456Z AUTO 24004KT 10SM CLR 17/M03 A3010 RMK AO2 SLP140 T01721028
KINW 190356Z AUTO 26008KT 10SM CLR 19/M03 A3010 RMK AO2 SLP141 T01941028
KINW 190256Z AUTO 24008KT 10SM CLR 19/M04 A3010 RMK AO2 SLP151 T01941039 51005
KINW 190156Z AUTO 25008KT 10SM CLR 20/M04 A3010 RMK AO2 SLP161 T02001044
KINW 190056Z AUTO 00000KT 10SM CLR 22/M05 A3009 RMK AO2 SLP147 T02171050
KINW 182356Z AUTO 02004KT 10SM CLR 27/M04 A3009 RMK AO2 SLP139 T02671044 10283 20211 56007
KINW 182256Z AUTO 06004KT 10SM CLR 28/M04 A3009 RMK AO2 SLP136 T02781044
KINW 182156Z AUTO 05006KT 10SM CLR 28/M04 A3010 RMK AO2 SLP137 T02781039
KINW 182056Z AUTO 07006KT 10SM CLR 28/M03 A3011 RMK AO2 SLP142 T02781033 58031
KINW 181956Z AUTO 11007KT 10SM CLR 27/M03 A3015 RMK AO2 SLP154 T02671033
KINW 181856Z AUTO 04005KT 10SM CLR 24/M04 A3019 RMK AO2 SLP170 T02441039
KINW 181756Z AUTO VRB03KT 10SM CLR 21/M03 A3022 RMK AO2 SLP181 T02061028 10206 20028 58001
KINW 181656Z AUTO VRB04KT 10SM CLR 18/M03 A3023 RMK AO2 SLP190 T01781033
KINW 181556Z AUTO 10004KT 10SM CLR 13/M05 A3024 RMK AO2 SLP198 T01331050
KINW 181456Z AUTO 11005KT 10SM CLR 09/M06 A3022 RMK AO2 SLP199 T00941061 53008
KINW 181356Z AUTO 00000KT 10SM CLR 03/M04 A3020 RMK AO2 SLP203 T00331044
KINW 181256Z AUTO 00000KT 10SM CLR 07/M07 A3020 RMK AO2 SLP180 T00671072
KINW 181156Z AUTO 00000KT 10SM CLR 06/M07 A3019 RMK AO2 SLP176 T00561067 10139 20050 53002
KINW 181056Z AUTO 00000KT 10SM CLR 06/M06 A3018 RMK AO2 SLP169 T00611056
KINW 180956Z AUTO 16004KT 10SM CLR 08/M05 A3018 RMK AO2 SLP166 T00781050
KINW 180856Z AUTO 12004KT 10SM CLR 08/M07 A3018 RMK AO2 SLP170 T00781072 57001
KINW 180756Z AUTO 12003KT 10SM CLR 09/M07 A3018 RMK AO2 SLP170 T00941067
KINW 180556Z AUTO 04003KT 10SM CLR 14/M03 A3019 RMK AO2 SLP172 T01391028 10267 20128 50003
KINW 180456Z AUTO 00000KT 10SM CLR 14/M03 A3019 RMK AO2 SLP179 T01391033
KINW 180356Z AUTO 00000KT 10SM CLR 15/M05 A3019 RMK AO2 SLP183 T01501050
KINW 180256Z AUTO 21004KT 10SM CLR 14/M07 A3017 RMK AO2 SLP188 T01441072 53005
KINW 180156Z AUTO 24003KT 10SM CLR 16/M08 A3016 RMK AO2 SLP189 T01611078
KINW 180056Z AUTO 02003KT 10SM CLR 24/M05 A3016 RMK AO2 SLP173 T02391050
KINW 172356Z AUTO 02004KT 10SM CLR 27/M04 A3016 RMK AO2 SLP166 T02671039 10278 20194 56014
KINW 172256Z AUTO 08003KT 10SM CLR 28/M03 A3017 RMK AO2 SLP172 T02781033